Terminal Aerodrome Forecast
Issued by NWS Louisville, KY

Home | Current Version | Previous Version | Text Only | Print | Product List | Glossary On
Versions: 1 2 3 4 5 6 7 8 9 10 11 12 13 14 15 16 17
000
FTUS43 KLMK 242300
TAFSDF
TAF
KSDF 242321Z 2500/2606 15010KT P6SM SCT060
     FM250500 17012KT P6SM SCT050 WS015/19040KT
     FM251400 20016G23KT P6SM VCTS BKN035CB
     FM252300 18008KT P6SM BKN080=

USA.gov is the U.S. government's official web portal to all federal, state and local government web resources and services.